Time;durP1;ratioP1;P1;durP2;ratioP2;P2;SDS_P1;SDS_P2;PMS_P1;PMS_P2;Temp;Humidity;BMP_temperature;BMP_pressure;BME280_temperature;BME280_humidity;BME280_pressure;Samples;Min_cycle;Max_cycle;Signal;HPM_P1;HPM_P2
2023/11/29 00:00:32;;;;;;;9.55;8.55;;;-0.90;1.00;;;;;;5072202;28;20700;-72
2023/11/29 00:02:59;;;;;;;8.90;8.00;;;-0.90;1.00;;;;;;5072508;28;20231;-71
2023/11/29 00:05:26;;;;;;;10.20;8.57;;;-0.90;1.00;;;;;;5070093;28;20236;-70
2023/11/29 00:07:53;;;;;;;10.73;8.50;;;-1.00;1.00;;;;;;5063946;28;20309;-70
2023/11/29 00:10:22;;;;;;;10.85;8.65;;;-1.00;1.00;;;;;;5072772;28;20306;-70
2023/11/29 00:12:49;;;;;;;9.65;8.13;;;-0.90;1.00;;;;;;5070642;28;20263;-72
2023/11/29 00:15:17;;;;;;;11.90;9.25;;;-1.00;1.00;;;;;;5074285;28;20293;-70
2023/11/29 00:17:46;;;;;;;9.80;8.75;;;-1.00;1.00;;;;;;5058509;28;20339;-71
2023/11/29 00:20:13;;;;;;;9.77;7.78;;;-1.10;1.00;;;;;;5062840;28;20235;-73
2023/11/29 00:22:40;;;;;;;10.02;8.38;;;-1.10;1.00;;;;;;5057977;28;20245;-72
2023/11/29 00:25:08;;;;;;;10.15;8.88;;;-1.20;1.00;;;;;;5056007;28;20335;-75
2023/11/29 00:27:36;;;;;;;13.38;9.20;;;-1.20;1.00;;;;;;5058184;28;20240;-71
2023/11/29 00:30:04;;;;;;;10.23;8.45;;;-1.30;1.00;;;;;;5068542;28;20306;-74
2023/11/29 00:32:31;;;;;;;10.10;7.60;;;-1.30;1.00;;;;;;5070422;28;20318;-70
2023/11/29 00:34:58;;;;;;;11.80;8.57;;;-1.30;1.00;;;;;;5067668;28;21034;-72
2023/11/29 00:37:25;;;;;;;11.07;8.50;;;-1.40;1.00;;;;;;5062990;28;20267;-72
2023/11/29 00:39:53;;;;;;;14.63;9.02;;;-1.40;1.00;;;;;;5067713;28;20235;-71
2023/11/29 00:42:19;;;;;;;11.55;8.18;;;-1.40;1.00;;;;;;5055368;28;20416;-73
2023/11/29 00:44:49;;;;;;;13.07;8.77;;;-1.50;1.00;;;;;;5060916;28;20238;-71
2023/11/29 00:47:16;;;;;;;9.25;8.00;;;-1.50;1.00;;;;;;5063125;28;20269;-70
2023/11/29 00:49:42;;;;;;;10.10;7.82;;;-1.50;1.00;;;;;;5066161;28;21445;-71
2023/11/29 00:52:09;;;;;;;10.63;8.82;;;-1.50;1.00;;;;;;5070116;28;20299;-73
2023/11/29 00:54:37;;;;;;;8.63;7.55;;;-1.50;1.00;;;;;;5069453;28;20268;-74
2023/11/29 00:57:04;;;;;;;11.30;9.65;;;-1.50;1.00;;;;;;5052187;28;20677;-69
2023/11/29 00:59:31;;;;;;;8.90;7.75;;;-1.60;1.00;;;;;;5067060;28;20228;-70
2023/11/29 01:01:59;;;;;;;11.90;8.70;;;-1.60;1.00;;;;;;5073540;28;20628;-70
2023/11/29 01:04:27;;;;;;;9.13;8.23;;;-1.60;1.00;;;;;;5070779;28;20324;-73
2023/11/29 01:06:54;;;;;;;10.93;7.28;;;-1.60;1.00;;;;;;5072615;28;20237;-75
2023/11/29 01:09:21;;;;;;;10.00;8.85;;;-1.60;1.00;;;;;;5071537;28;20241;-71
2023/11/29 01:11:47;;;;;;;12.48;9.45;;;-1.60;1.00;;;;;;5076171;28;20342;-77
2023/11/29 01:14:14;;;;;;;11.20;8.40;;;-1.50;1.00;;;;;;5078787;28;20233;-73
2023/11/29 01:16:41;;;;;;;14.82;9.48;;;-1.50;1.00;;;;;;5075239;28;20236;-77
2023/11/29 01:19:10;;;;;;;12.65;9.82;;;-1.50;1.00;;;;;;5078050;28;20782;-76
2023/11/29 01:21:38;;;;;;;12.55;10.10;;;-1.60;1.00;;;;;;5078093;28;20232;-77
2023/11/29 01:24:06;;;;;;;11.95;8.85;;;-1.70;1.00;;;;;;5076993;28;20239;-78
2023/11/29 01:26:33;;;;;;;13.00;9.07;;;-1.70;1.00;;;;;;5077825;28;21870;-76
2023/11/29 01:29:00;;;;;;;13.13;9.38;;;-1.90;1.00;;;;;;5077136;28;20704;-78
2023/11/29 01:31:28;;;;;;;10.68;9.55;;;-1.90;1.00;;;;;;5060457;28;20239;-77
2023/11/29 01:33:55;;;;;;;11.85;10.10;;;-1.90;1.00;;;;;;5077626;28;20916;-77
2023/11/29 01:36:23;;;;;;;11.18;9.55;;;-2.00;1.00;;;;;;5078218;28;20259;-77
2023/11/29 01:38:51;;;;;;;12.32;9.93;;;-2.10;1.00;;;;;;5063942;28;20288;-77
2023/11/29 01:41:18;;;;;;;15.90;8.38;;;-2.10;1.00;;;;;;5060837;28;20244;-76
2023/11/29 01:43:45;;;;;;;10.02;8.63;;;-2.20;1.00;;;;;;5065753;28;20270;-78
2023/11/29 01:46:12;;;;;;;13.63;9.55;;;-2.20;1.00;;;;;;5060440;28;21040;-78
2023/11/29 01:48:40;;;;;;;11.98;8.93;;;-2.30;1.00;;;;;;5067168;28;20265;-78
2023/11/29 01:51:08;;;;;;;12.23;9.48;;;-2.30;1.00;;;;;;5075266;28;20259;-77
2023/11/29 01:53:37;;;;;;;11.60;8.95;;;-2.30;1.00;;;;;;5076545;28;20240;-78
2023/11/29 01:56:05;;;;;;;12.98;9.95;;;-2.30;1.00;;;;;;5077848;28;20252;-75
2023/11/29 01:58:32;;;;;;;10.88;8.35;;;-2.30;1.00;;;;;;5067845;28;20243;-76
2023/11/29 02:01:00;;;;;;;11.63;8.45;;;-2.20;1.00;;;;;;5067179;28;20239;-76
2023/11/29 02:03:27;;;;;;;12.40;10.00;;;-2.20;1.00;;;;;;5062611;28;20239;-76
2023/11/29 02:05:55;;;;;;;11.25;9.00;;;-2.20;1.00;;;;;;5074324;28;21204;-77
2023/11/29 02:08:22;;;;;;;13.82;9.50;;;-2.20;1.00;;;;;;5057663;28;20253;-76
2023/11/29 02:10:50;;;;;;;13.82;8.95;;;-2.20;1.00;;;;;;5058418;28;20256;-76
2023/11/29 02:13:17;;;;;;;11.70;8.65;;;-2.20;1.00;;;;;;5059753;28;21099;-76
2023/11/29 02:15:45;;;;;;;12.20;9.15;;;-2.10;1.00;;;;;;5064587;28;20264;-77
2023/11/29 02:18:13;;;;;;;12.48;9.00;;;-2.10;1.00;;;;;;5076826;28;20343;-78
2023/11/29 02:20:40;;;;;;;13.18;8.57;;;-2.10;1.00;;;;;;5072278;28;20241;-76
2023/11/29 02:23:16;;;;;;;11.48;8.60;;;-2.10;1.00;;;;;;5058558;28;20239;-78
2023/11/29 02:25:44;;;;;;;12.75;9.25;;;-2.10;1.00;;;;;;5072406;28;21147;-76
2023/11/29 02:28:11;;;;;;;11.57;9.02;;;-2.10;1.00;;;;;;5072717;28;20236;-77
2023/11/29 02:30:38;;;;;;;12.07;8.88;;;-2.10;1.00;;;;;;5066243;28;20260;-77
2023/11/29 02:33:05;;;;;;;12.35;9.85;;;-2.20;1.00;;;;;;5072342;28;21075;-76
2023/11/29 02:35:32;;;;;;;11.50;9.35;;;-2.20;1.00;;;;;;5063026;28;20717;-77
2023/11/29 02:38:01;;;;;;;11.02;8.65;;;-2.20;1.00;;;;;;5059189;28;20244;-76
2023/11/29 02:40:29;;;;;;;11.20;9.32;;;-2.30;1.00;;;;;;5076159;28;20241;-77
2023/11/29 02:42:57;;;;;;;12.70;9.02;;;-2.20;1.00;;;;;;5073967;28;20248;-74
2023/11/29 02:45:24;;;;;;;14.95;9.80;;;-2.10;1.00;;;;;;5058603;28;20769;-76
2023/11/29 02:47:51;;;;;;;10.13;7.82;;;-2.10;1.00;;;;;;5061189;28;20318;-78
2023/11/29 02:50:18;;;;;;;10.23;8.38;;;-2.10;1.00;;;;;;5066752;28;20263;-77
2023/11/29 02:52:48;;;;;;;12.15;10.45;;;-2.10;1.00;;;;;;5071856;28;20241;-78
2023/11/29 02:55:15;;;;;;;9.45;7.68;;;-2.00;1.00;;;;;;5073514;28;20226;-78
2023/11/29 02:57:42;;;;;;;9.70;7.80;;;-2.00;1.00;;;;;;5066913;28;20209;-76
2023/11/29 03:00:11;;;;;;;8.20;7.07;;;-2.00;1.00;;;;;;5072748;28;20310;-76
2023/11/29 03:02:38;;;;;;;9.93;7.75;;;-2.10;1.00;;;;;;5056061;28;20247;-75
2023/11/29 03:05:06;;;;;;;9.25;8.25;;;-2.00;1.00;;;;;;5073816;28;20267;-76
2023/11/29 03:07:33;;;;;;;9.90;6.55;;;-2.00;1.00;;;;;;5065314;28;20245;-77
2023/11/29 03:10:00;;;;;;;8.60;7.13;;;-2.00;1.00;;;;;;5062862;28;20237;-78
2023/11/29 03:12:27;;;;;;;8.13;7.10;;;-2.10;1.00;;;;;;5058766;28;20324;-78
2023/11/29 03:14:54;;;;;;;9.15;6.20;;;-2.10;1.00;;;;;;5061547;28;22250;-78
2023/11/29 03:17:22;;;;;;;9.30;7.68;;;-2.00;1.00;;;;;;5063632;28;20256;-77
2023/11/29 03:19:49;;;;;;;9.43;7.25;;;-2.10;1.00;;;;;;5073265;28;20240;-78
2023/11/29 03:22:17;;;;;;;8.45;6.55;;;-2.10;1.00;;;;;;5073143;28;20240;-78
2023/11/29 03:24:46;;;;;;;10.57;7.07;;;-2.10;1.00;;;;;;5064529;28;20893;-77
2023/11/29 03:27:14;;;;;;;8.25;6.85;;;-2.10;1.00;;;;;;5061992;28;21042;-77
2023/11/29 03:29:42;;;;;;;7.05;6.35;;;-2.00;1.00;;;;;;5054635;28;20261;-76
2023/11/29 03:32:11;;;;;;;8.82;7.63;;;-2.00;1.00;;;;;;5056748;28;20327;-74
2023/11/29 03:34:40;;;;;;;8.73;7.10;;;-2.00;1.00;;;;;;5068801;28;20249;-72
2023/11/29 03:37:07;;;;;;;9.63;7.22;;;-2.00;1.00;;;;;;5067995;28;20292;-72
2023/11/29 03:39:33;;;;;;;7.70;6.90;;;-2.10;1.00;;;;;;5068045;28;20228;-73
2023/11/29 03:42:00;;;;;;;10.27;7.45;;;-2.10;1.00;;;;;;5059399;28;20243;-74
2023/11/29 03:44:27;;;;;;;8.13;7.32;;;-2.10;1.00;;;;;;5067749;28;20247;-72
2023/11/29 03:46:54;;;;;;;9.18;7.13;;;-2.10;1.00;;;;;;5050288;28;20236;-73
2023/11/29 03:49:23;;;;;;;11.20;6.75;;;-2.20;1.00;;;;;;5063756;28;20336;-73
2023/11/29 03:51:51;;;;;;;10.20;7.45;;;-2.20;1.00;;;;;;5062439;28;20245;-73
2023/11/29 03:54:18;;;;;;;8.02;6.68;;;-2.30;1.00;;;;;;5058482;28;21077;-74
2023/11/29 03:56:44;;;;;;;10.18;7.78;;;-2.30;1.00;;;;;;5049566;28;20229;-72
2023/11/29 03:59:11;;;;;;;9.37;6.43;;;-2.30;1.00;;;;;;5054172;28;20272;-77
2023/11/29 04:01:38;;;;;;;8.45;7.38;;;-2.40;1.00;;;;;;5064723;28;20480;-72
2023/11/29 04:04:05;;;;;;;10.80;8.60;;;-2.40;1.00;;;;;;5048089;28;20241;-72
2023/11/29 04:06:32;;;;;;;9.25;6.63;;;-2.40;1.00;;;;;;5057954;28;20423;-72
2023/11/29 04:09:00;;;;;;;8.18;6.45;;;-2.40;1.00;;;;;;5057784;28;20269;-72
2023/11/29 04:11:27;;;;;;;9.57;7.50;;;-2.40;1.00;;;;;;5061594;28;20323;-72
2023/11/29 04:13:54;;;;;;;9.02;6.40;;;-2.30;1.00;;;;;;5050318;28;20731;-72
2023/11/29 04:16:22;;;;;;;7.55;6.35;;;-2.40;1.00;;;;;;5070739;28;20259;-72
2023/11/29 04:18:52;;;;;;;10.80;7.85;;;-2.30;1.00;;;;;;5072965;28;20761;-72
2023/11/29 04:21:22;;;;;;;8.63;6.78;;;-2.30;1.00;;;;;;5057926;28;20291;-74
2023/11/29 04:23:49;;;;;;;8.73;6.28;;;-2.20;1.00;;;;;;5049268;28;20242;-72
2023/11/29 04:26:29;;;;;;;7.85;6.75;;;-2.20;1.00;;;;;;5050863;28;20233;-73
2023/11/29 04:28:56;;;;;;;10.27;8.30;;;-2.20;1.00;;;;;;5057925;28;21019;-75
2023/11/29 04:31:24;;;;;;;7.55;6.65;;;-2.20;1.00;;;;;;5063722;28;20245;-73
2023/11/29 04:33:53;;;;;;;8.95;7.85;;;-2.20;1.00;;;;;;5071314;28;20392;-74
2023/11/29 04:36:20;;;;;;;11.30;7.57;;;-2.20;1.00;;;;;;5075836;28;20344;-72
2023/11/29 04:38:49;;;;;;;9.05;7.07;;;-2.10;1.00;;;;;;5089528;28;20272;-73
2023/11/29 04:41:17;;;;;;;8.40;7.18;;;-2.10;1.00;;;;;;5073586;28;20244;-79
2023/11/29 04:43:46;;;;;;;9.82;7.70;;;-2.10;1.00;;;;;;5079504;28;20267;-77
2023/11/29 04:46:13;;;;;;;7.85;7.05;;;-2.00;1.00;;;;;;5074119;28;20230;-75
2023/11/29 04:48:40;;;;;;;9.27;7.97;;;-2.00;1.00;;;;;;5067964;28;20294;-77
2023/11/29 04:51:09;;;;;;;9.60;8.13;;;-2.10;1.00;;;;;;5071275;28;20241;-77
2023/11/29 04:53:38;;;;;;;12.65;7.38;;;-2.10;1.00;;;;;;5059940;28;21072;-78
2023/11/29 04:56:06;;;;;;;11.35;8.63;;;-2.10;1.00;;;;;;5058574;28;20241;-75
2023/11/29 04:58:39;;;;;;;9.82;7.72;;;-2.10;1.00;;;;;;5061072;28;20240;-75
2023/11/29 05:01:08;;;;;;;9.02;7.38;;;-2.10;1.00;;;;;;5071441;28;20232;-76
2023/11/29 05:03:36;;;;;;;11.52;6.95;;;-2.10;1.00;;;;;;5062643;28;20236;-76
2023/11/29 05:06:06;;;;;;;9.13;7.60;;;-2.10;1.00;;;;;;5074978;28;20719;-78
2023/11/29 05:08:34;;;;;;;9.15;8.02;;;-2.10;1.00;;;;;;5084131;28;20260;-76
2023/11/29 05:11:04;;;;;;;9.10;7.25;;;-2.00;1.00;;;;;;5067778;28;20237;-78
2023/11/29 05:13:31;;;;;;;11.27;7.85;;;-2.00;1.00;;;;;;5066230;28;20355;-77
2023/11/29 05:15:58;;;;;;;8.57;7.78;;;-1.90;1.00;;;;;;5076193;28;20255;-77
2023/11/29 05:18:31;;;;;;;9.65;7.60;;;-1.80;1.00;;;;;;5074314;28;21008;-76
2023/11/29 05:20:58;;;;;;;8.95;6.47;;;-1.90;1.00;;;;;;5065226;28;21184;-75
2023/11/29 05:23:26;;;;;;;8.07;7.30;;;-1.90;1.00;;;;;;5073736;28;21127;-76
2023/11/29 05:25:52;;;;;;;8.48;6.85;;;-1.80;1.00;;;;;;5057369;28;20244;-74
2023/11/29 05:28:24;;;;;;;9.20;8.32;;;-1.80;1.00;;;;;;5073662;28;20244;-77
2023/11/29 05:30:52;;;;;;;8.00;6.95;;;-1.80;1.00;;;;;;5072457;28;20748;-78
2023/11/29 05:33:19;;;;;;;7.35;6.63;;;-1.70;1.00;;;;;;5068083;28;20254;-77
2023/11/29 05:35:49;;;;;;;7.50;6.80;;;-1.70;1.00;;;;;;5067772;28;20347;-78
2023/11/29 05:38:17;;;;;;;7.68;6.82;;;-1.70;1.00;;;;;;5078127;28;20239;-78
2023/11/29 05:40:44;;;;;;;8.05;7.22;;;-1.70;1.00;;;;;;5065425;28;20273;-74
2023/11/29 05:43:11;;;;;;;7.50;6.70;;;-1.60;1.00;;;;;;5068789;28;20241;-76
2023/11/29 05:45:38;;;;;;;8.48;7.50;;;-1.60;1.00;;;;;;5060755;28;20222;-77
2023/11/29 05:48:06;;;;;;;6.82;6.13;;;-1.50;1.00;;;;;;5063309;28;20237;-77
2023/11/29 05:50:33;;;;;;;6.97;6.28;;;-1.50;1.00;;;;;;5060833;28;20941;-74
2023/11/29 05:53:01;;;;;;;7.93;6.68;;;-1.50;1.00;;;;;;5065709;28;20299;-77
2023/11/29 05:55:28;;;;;;;7.40;6.18;;;-1.40;1.00;;;;;;5065163;28;20236;-78
2023/11/29 05:57:58;;;;;;;7.40;5.88;;;-1.40;1.00;;;;;;5059374;28;20233;-81
2023/11/29 06:00:25;;;;;;;8.43;6.88;;;-1.40;1.00;;;;;;5054650;28;20720;-79
2023/11/29 06:02:52;;;;;;;8.63;6.97;;;-1.40;1.00;;;;;;5063321;28;20332;-76
2023/11/29 06:05:22;;;;;;;8.15;6.18;;;-1.40;1.00;;;;;;5052332;28;20240;-77
2023/11/29 06:07:50;;;;;;;8.45;6.63;;;-1.40;1.00;;;;;;5067802;28;20310;-77
2023/11/29 06:10:21;;;;;;;6.85;6.20;;;-1.50;1.00;;;;;;5069173;28;20229;-78
2023/11/29 06:12:48;;;;;;;8.13;6.93;;;-1.40;1.00;;;;;;5057611;28;20241;-79
2023/11/29 06:15:15;;;;;;;9.68;7.13;;;-1.50;1.00;;;;;;5061650;28;20272;-77
2023/11/29 06:17:42;;;;;;;7.10;6.40;;;-1.40;1.00;;;;;;5070066;28;20300;-76
2023/11/29 06:20:12;;;;;;;8.18;7.38;;;-1.40;1.00;;;;;;5070870;28;20236;-77
2023/11/29 06:22:39;;;;;;;6.78;6.05;;;-1.30;1.00;;;;;;5070944;28;20243;-77
2023/11/29 06:25:07;;;;;;;6.82;6.13;;;-1.30;1.00;;;;;;5071262;28;20256;-76
2023/11/29 06:27:35;;;;;;;7.45;6.70;;;-1.30;1.00;;;;;;5065969;28;20237;-77
2023/11/29 06:30:07;;;;;;;8.82;6.97;;;-1.30;1.00;;;;;;5070302;28;20244;-76
2023/11/29 06:32:36;;;;;;;8.68;7.05;;;-1.30;1.00;;;;;;5072374;28;20413;-78
2023/11/29 06:35:04;;;;;;;7.55;6.75;;;-1.30;1.00;;;;;;5068651;28;20717;-79
2023/11/29 06:37:33;;;;;;;8.32;6.30;;;-1.30;1.00;;;;;;5075565;28;20384;-75
2023/11/29 06:40:01;;;;;;;6.93;6.20;;;-1.30;1.00;;;;;;5055160;28;20236;-80
2023/11/29 06:42:29;;;;;;;6.93;6.00;;;-1.20;1.00;;;;;;5060034;28;20264;-78
2023/11/29 06:44:57;;;;;;;7.70;6.50;;;-1.20;1.00;;;;;;5066244;28;20238;-78
2023/11/29 06:47:26;;;;;;;6.97;6.28;;;-1.20;1.00;;;;;;5075284;28;20237;-76
2023/11/29 06:49:54;;;;;;;9.38;7.40;;;-1.30;1.00;;;;;;5074069;28;20882;-79
2023/11/29 06:52:21;;;;;;;8.48;7.43;;;-1.30;1.00;;;;;;5071815;28;20959;-79
2023/11/29 06:54:49;;;;;;;9.18;8.20;;;-1.20;1.00;;;;;;5072128;28;20248;-77
2023/11/29 06:57:18;;;;;;;11.68;8.73;;;-1.10;1.00;;;;;;5072497;28;20323;-76
2023/11/29 06:59:47;;;;;;;10.48;8.70;;;-1.10;1.00;;;;;;5072127;28;20228;-76
2023/11/29 07:02:16;;;;;;;8.30;7.03;;;-1.20;1.00;;;;;;5070260;28;20307;-71
2023/11/29 07:04:45;;;;;;;8.63;7.72;;;-1.20;1.00;;;;;;5053640;28;20328;-72
2023/11/29 07:07:12;;;;;;;8.68;7.40;;;-1.20;1.00;;;;;;5069339;28;21081;-69
2023/11/29 07:09:40;;;;;;;8.95;8.05;;;-1.20;1.00;;;;;;5064632;28;20248;-69
2023/11/29 07:12:09;;;;;;;9.00;8.10;;;-1.30;1.00;;;;;;5071538;28;20320;-70
2023/11/29 07:14:37;;;;;;;8.48;7.30;;;-1.30;1.00;;;;;;5062644;28;20233;-70
2023/11/29 07:17:06;;;;;;;9.38;8.48;;;-1.30;1.00;;;;;;5054457;28;20391;-68
2023/11/29 07:19:34;;;;;;;11.70;10.07;;;-1.30;1.00;;;;;;5063250;28;20240;-72
2023/11/29 07:22:01;;;;;;;10.35;8.30;;;-1.40;1.00;;;;;;5055512;28;20240;-69
2023/11/29 07:24:28;;;;;;;10.30;8.70;;;-1.30;1.00;;;;;;5081551;28;20792;-70
2023/11/29 07:26:55;;;;;;;10.30;8.20;;;-1.30;1.00;;;;;;5061398;28;20240;-69
2023/11/29 07:29:22;;;;;;;12.10;8.95;;;-1.30;1.00;;;;;;5067688;28;20402;-70
2023/11/29 07:31:53;;;;;;;10.05;7.90;;;-1.30;1.00;;;;;;5071578;28;20323;-69
2023/11/29 07:34:20;;;;;;;11.23;8.48;;;-1.30;1.00;;;;;;5071779;28;20247;-75
2023/11/29 07:36:51;;;;;;;10.00;8.20;;;-1.30;1.00;;;;;;5069805;28;20279;-74
2023/11/29 07:39:18;;;;;;;11.40;8.38;;;-1.30;1.00;;;;;;5071834;28;20304;-71
2023/11/29 07:41:45;;;;;;;10.25;8.20;;;-1.20;1.00;;;;;;5068343;28;20766;-71
2023/11/29 07:44:12;;;;;;;8.52;7.60;;;-1.10;1.00;;;;;;5069680;28;20986;-69
2023/11/29 07:46:39;;;;;;;55.95;34.10;;;-1.20;1.00;;;;;;5063571;28;20275;-74
2023/11/29 07:49:06;;;;;;;12.70;9.82;;;-1.20;1.00;;;;;;5051837;28;20815;-73
2023/11/29 07:51:33;;;;;;;10.48;8.77;;;-1.20;1.00;;;;;;5063922;28;20244;-71
2023/11/29 07:54:03;;;;;;;10.88;9.07;;;-1.10;1.00;;;;;;5062643;28;20324;-73
2023/11/29 07:56:39;;;;;;;10.10;7.70;;;-1.20;1.00;;;;;;5063042;28;20335;-71
2023/11/29 07:59:07;;;;;;;9.32;8.40;;;-1.10;1.00;;;;;;5054775;28;20315;-78
2023/11/29 08:01:34;;;;;;;8.25;7.45;;;-1.20;1.00;;;;;;5067602;28;21007;-70
2023/11/29 08:04:01;;;;;;;10.23;8.80;;;-1.10;1.00;;;;;;5067582;28;20713;-70
2023/11/29 08:06:30;;;;;;;10.80;9.70;;;-1.10;1.00;;;;;;5068639;28;20241;-71
2023/11/29 08:08:57;;;;;;;10.75;8.15;;;-1.10;1.00;;;;;;5051622;28;20256;-73
2023/11/29 08:11:33;;;;;;;10.65;8.30;;;-1.10;1.00;;;;;;5068789;28;20260;-74
2023/11/29 08:14:01;;;;;;;12.43;8.52;;;-1.00;1.00;;;;;;5070931;28;20448;-71
2023/11/29 08:16:28;;;;;;;16.30;8.63;;;-1.00;1.00;;;;;;5061779;28;20233;-71
2023/11/29 08:18:57;;;;;;;15.68;9.93;;;-1.00;1.00;;;;;;5067035;28;20237;-71
2023/11/29 08:21:27;;;;;;;10.73;8.35;;;-0.90;1.00;;;;;;5063330;28;20808;-71
2023/11/29 08:23:55;;;;;;;10.02;8.48;;;-0.90;1.00;;;;;;5071157;28;21080;-73
2023/11/29 08:26:23;;;;;;;11.98;8.88;;;-0.80;1.00;;;;;;5069768;28;20276;-72
2023/11/29 08:28:51;;;;;;;9.10;8.18;;;-0.90;1.00;;;;;;5069130;28;20781;-72
2023/11/29 08:31:18;;;;;;;9.75;8.75;;;-0.90;1.00;;;;;;5071227;28;20996;-72
2023/11/29 08:33:46;;;;;;;10.52;8.52;;;-0.80;1.00;;;;;;5061991;28;20813;-72
2023/11/29 08:36:13;;;;;;;11.93;9.25;;;-0.80;1.00;;;;;;5056138;28;20367;-76
2023/11/29 08:38:39;;;;;;;9.98;8.77;;;-0.90;1.00;;;;;;5055370;28;20239;-75
2023/11/29 08:41:08;;;;;;;14.70;9.35;;;-0.90;1.00;;;;;;5068562;28;21120;-71
2023/11/29 08:43:35;;;;;;;10.93;9.68;;;-0.70;1.00;;;;;;5067430;28;20813;-73
2023/11/29 08:46:04;;;;;;;8.85;7.72;;;-0.70;1.00;;;;;;5067169;28;20237;-76
2023/11/29 08:48:31;;;;;;;12.10;9.55;;;-0.70;1.00;;;;;;5070928;28;20291;-75
2023/11/29 08:51:06;;;;;;;12.82;8.65;;;-0.60;1.00;;;;;;5059743;28;20232;-73
2023/11/29 08:53:33;;;;;;;10.38;8.60;;;-0.60;1.00;;;;;;5069271;28;21133;-72
2023/11/29 08:56:04;;;;;;;11.13;9.90;;;-0.50;1.00;;;;;;5057334;28;20244;-73
2023/11/29 08:58:31;;;;;;;10.48;8.77;;;-0.50;1.00;;;;;;5056684;28;20247;-73
2023/11/29 09:00:59;;;;;;;10.57;9.38;;;-0.50;1.00;;;;;;5064626;28;20366;-73
2023/11/29 09:03:28;;;;;;;10.30;9.13;;;-0.50;1.00;;;;;;5064190;28;20236;-73
2023/11/29 09:05:55;;;;;;;11.75;9.10;;;-0.60;1.00;;;;;;5061455;28;20330;-72
2023/11/29 09:08:23;;;;;;;16.83;10.32;;;-0.50;1.00;;;;;;5062882;28;20327;-73
2023/11/29 09:10:52;;;;;;;12.10;9.70;;;-0.60;1.00;;;;;;5068311;28;20327;-74
2023/11/29 09:13:20;;;;;;;11.15;8.80;;;-0.50;1.00;;;;;;5054954;28;20249;-73
2023/11/29 09:15:47;;;;;;;10.23;8.93;;;-0.50;1.00;;;;;;5064903;28;20241;-74
2023/11/29 09:18:15;;;;;;;10.65;8.50;;;-0.50;1.00;;;;;;5063349;28;20786;-74
2023/11/29 09:20:44;;;;;;;10.60;9.25;;;-0.60;1.00;;;;;;5070485;28;20243;-76
2023/11/29 09:23:11;;;;;;;10.60;9.43;;;-0.50;1.00;;;;;;5064580;28;20432;-81
2023/11/29 09:25:40;;;;;;;11.30;9.20;;;-0.30;1.00;;;;;;5057574;28;20343;-76
2023/11/29 09:28:15;;;;;;;9.88;8.68;;;-0.20;1.00;;;;;;5063179;28;20233;-78
2023/11/29 09:30:45;;;;;;;11.73;9.70;;;-0.20;1.00;;;;;;5074149;28;20236;-78
2023/11/29 09:33:12;;;;;;;11.77;9.18;;;-0.20;1.00;;;;;;5079858;28;20225;-82
2023/11/29 09:35:41;;;;;;;10.38;9.02;;;-0.20;1.00;;;;;;5086951;28;20236;-80
2023/11/29 09:38:10;;;;;;;15.88;9.48;;;-0.10;1.00;;;;;;5055384;28;20233;-81
2023/11/29 09:40:37;;;;;;;14.85;10.25;;;0.00;1.00;;;;;;5060398;28;20217;-79
2023/11/29 09:43:05;;;;;;;12.07;8.70;;;0.10;1.00;;;;;;5058346;28;20229;-80
2023/11/29 09:45:33;;;;;;;10.45;9.00;;;0.10;1.00;;;;;;5074897;28;20240;-81
2023/11/29 09:48:01;;;;;;;9.43;8.43;;;0.10;1.00;;;;;;5072245;28;20345;-78
2023/11/29 09:50:32;;;;;;;9.10;8.20;;;0.20;1.00;;;;;;5063868;28;20328;-80
2023/11/29 09:53:00;;;;;;;10.60;9.07;;;0.30;1.00;;;;;;5064477;28;20301;-78
2023/11/29 09:55:28;;;;;;;12.55;9.20;;;0.50;1.00;;;;;;5077261;28;20220;-81
2023/11/29 09:57:57;;;;;;;10.52;8.27;;;0.50;1.00;;;;;;5075565;28;20309;-81
2023/11/29 10:00:25;;;;;;;10.35;8.88;;;0.60;1.00;;;;;;5067440;28;21044;-78
2023/11/29 10:02:54;;;;;;;12.02;8.93;;;0.60;1.00;;;;;;5071148;28;20268;-79
2023/11/29 10:05:22;;;;;;;10.77;9.18;;;0.80;1.00;;;;;;5060477;28;20249;-81
2023/11/29 10:07:51;;;;;;;9.63;8.57;;;0.90;1.00;;;;;;5072892;28;20241;-76
2023/11/29 10:10:18;;;;;;;10.77;8.70;;;1.00;1.00;;;;;;5071985;28;20736;-78
2023/11/29 10:12:51;;;;;;;8.63;7.70;;;1.00;1.00;;;;;;5064302;28;20670;-78
2023/11/29 10:15:18;;;;;;;9.48;8.45;;;0.70;1.00;;;;;;5062299;28;20233;-79
2023/11/29 10:17:45;;;;;;;10.00;8.30;;;0.80;1.00;;;;;;5060921;28;20245;-83
2023/11/29 10:20:13;;;;;;;10.45;9.02;;;0.80;1.00;;;;;;5062696;28;20236;-81
2023/11/29 10:22:40;;;;;;;23.00;9.90;;;0.60;1.00;;;;;;5058172;28;20633;-82
2023/11/29 10:25:20;;;;;;;11.45;9.07;;;0.70;1.00;;;;;;5070367;28;20263;-80
2023/11/29 10:27:49;;;;;;;12.65;9.63;;;0.70;1.00;;;;;;5068199;28;20240;-79
2023/11/29 10:30:17;;;;;;;11.70;9.05;;;0.80;1.00;;;;;;5054693;28;20251;-78
2023/11/29 10:32:45;;;;;;;13.52;9.45;;;0.80;1.00;;;;;;5059506;28;20232;-77
2023/11/29 10:35:14;;;;;;;12.52;10.40;;;0.90;1.00;;;;;;5056738;28;20316;-74
2023/11/29 10:37:45;;;;;;;12.38;9.65;;;0.80;1.00;;;;;;5055322;28;21117;-80
2023/11/29 10:40:15;;;;;;;11.90;10.02;;;0.80;1.00;;;;;;5056009;28;20244;-78
2023/11/29 10:42:44;;;;;;;13.15;9.45;;;0.90;1.00;;;;;;5054629;28;20319;-79
2023/11/29 10:45:17;;;;;;;11.43;10.10;;;0.80;1.00;;;;;;5043863;28;20241;-78
2023/11/29 10:47:50;;;;;;;13.45;10.98;;;0.70;1.00;;;;;;5053332;28;20299;-80
2023/11/29 10:50:20;;;;;;;13.50;9.93;;;0.90;1.00;;;;;;5063947;28;20306;-83
2023/11/29 10:52:47;;;;;;;14.73;11.00;;;1.00;1.00;;;;;;5057634;28;20298;-81
2023/11/29 10:55:16;;;;;;;12.45;9.38;;;1.20;1.00;;;;;;5067921;28;20285;-84
2023/11/29 10:57:50;;;;;;;14.10;10.27;;;1.30;1.00;;;;;;5060164;28;20237;-79
2023/11/29 11:00:25;;;;;;;12.15;9.98;;;1.40;1.00;;;;;;5066569;28;20268;-78
2023/11/29 11:02:52;;;;;;;10.80;8.85;;;1.30;1.00;;;;;;5060186;28;21084;-78
2023/11/29 11:05:23;;;;;;;14.60;10.73;;;1.20;1.00;;;;;;5072911;28;20272;-78
2023/11/29 11:07:51;;;;;;;12.38;9.02;;;1.00;1.00;;;;;;5072046;28;20303;-78
2023/11/29 11:10:23;;;;;;;10.93;9.43;;;1.10;1.00;;;;;;5049236;28;20252;-79
2023/11/29 11:12:51;;;;;;;10.30;8.20;;;1.30;1.00;;;;;;5047153;28;20241;-77
2023/11/29 11:15:21;;;;;;;12.68;10.35;;;1.20;1.00;;;;;;5064600;28;20268;-79
2023/11/29 11:18:22;;;;;;;12.77;8.88;;;1.10;1.00;;;;;;5064243;28;20236;-79
2023/11/29 11:20:59;;;;;;;10.75;9.63;;;1.10;1.00;;;;;;5079660;28;20238;-80
2023/11/29 11:23:28;;;;;;;11.40;9.30;;;1.10;1.00;;;;;;5057263;28;20242;-74
2023/11/29 11:25:56;;;;;;;19.08;10.75;;;1.20;1.00;;;;;;5055947;28;20270;-76
2023/11/29 11:28:32;;;;;;;15.93;10.65;;;1.30;1.00;;;;;;5084168;28;20272;-77
2023/11/29 11:31:03;;;;;;;11.70;9.45;;;1.30;1.00;;;;;;5053443;28;20272;-77
2023/11/29 11:34:03;;;;;;;9.85;8.85;;;1.30;1.00;;;;;;5053235;28;20332;-79
2023/11/29 11:36:32;;;;;;;12.18;10.18;;;1.20;1.00;;;;;;5069131;28;20307;-79
2023/11/29 11:38:59;;;;;;;11.52;9.25;;;1.10;1.00;;;;;;5060065;28;21050;-74
2023/11/29 11:41:27;;;;;;;12.02;9.20;;;1.00;1.00;;;;;;5060090;28;20252;-74
2023/11/29 11:43:54;;;;;;;11.20;9.48;;;0.90;1.00;;;;;;5057582;28;20283;-76
2023/11/29 11:46:22;;;;;;;10.88;9.20;;;1.00;1.00;;;;;;5067516;28;20238;-73
2023/11/29 11:48:49;;;;;;;12.48;9.43;;;1.00;1.00;;;;;;5069436;28;20332;-73
2023/11/29 11:51:20;;;;;;;10.38;9.05;;;0.90;1.00;;;;;;5063783;28;20244;-73
2023/11/29 11:53:50;;;;;;;10.13;8.40;;;0.80;1.00;;;;;;5060488;28;20263;-75
2023/11/29 11:56:18;;;;;;;12.18;9.27;;;0.90;1.00;;;;;;5058092;28;20328;-73
2023/11/29 11:58:45;;;;;;;13.57;10.15;;;0.90;1.00;;;;;;5068279;28;20244;-73
2023/11/29 12:01:13;;;;;;;14.85;9.55;;;1.00;1.00;;;;;;5070052;28;20241;-75
2023/11/29 12:03:41;;;;;;;12.48;9.27;;;1.00;1.00;;;;;;5072566;28;20315;-75
2023/11/29 12:06:09;;;;;;;11.43;9.30;;;0.90;1.00;;;;;;5074103;28;20232;-72
2023/11/29 12:08:37;;;;;;;11.93;9.32;;;0.80;1.00;;;;;;5069024;28;20240;-74
2023/11/29 12:11:08;;;;;;;11.52;10.25;;;0.90;1.00;;;;;;5070754;28;20241;-78
2023/11/29 12:13:35;;;;;;;12.40;10.40;;;0.80;1.00;;;;;;5073044;28;20248;-75
2023/11/29 12:16:13;;;;;;;12.13;9.50;;;0.80;1.00;;;;;;5071874;28;20307;-77
2023/11/29 12:18:40;;;;;;;12.45;10.82;;;0.70;1.00;;;;;;5064100;28;20331;-77
2023/11/29 12:21:08;;;;;;;13.93;10.20;;;0.80;1.00;;;;;;5063159;28;20266;-75
2023/11/29 12:23:36;;;;;;;16.50;11.25;;;0.80;1.00;;;;;;5071088;28;20369;-76
2023/11/29 12:26:03;;;;;;;15.68;11.35;;;0.90;1.00;;;;;;5065956;28;20725;-75
2023/11/29 12:28:32;;;;;;;14.27;11.20;;;0.80;1.00;;;;;;5061419;28;20233;-75
2023/11/29 12:31:00;;;;;;;13.88;11.10;;;0.70;1.00;;;;;;5060391;28;20310;-74
2023/11/29 12:33:27;;;;;;;13.05;11.48;;;0.70;1.00;;;;;;5054172;28;20339;-75
2023/11/29 12:35:54;;;;;;;15.10;12.20;;;0.70;1.00;;;;;;5069804;28;20235;-77
2023/11/29 12:38:20;;;;;;;19.05;11.60;;;0.70;1.00;;;;;;5065417;28;20241;-76
2023/11/29 12:40:48;;;;;;;12.07;10.77;;;0.70;1.00;;;;;;5049831;28;20241;-77
2023/11/29 12:43:15;;;;;;;13.35;10.55;;;0.70;1.00;;;;;;5067303;28;20233;-75
2023/11/29 12:45:43;;;;;;;19.77;11.75;;;0.60;1.00;;;;;;5066066;28;20319;-75
2023/11/29 12:48:10;;;;;;;16.92;12.25;;;0.60;1.00;;;;;;5069125;28;20743;-76
2023/11/29 12:50:38;;;;;;;14.82;11.60;;;0.70;1.00;;;;;;5072344;28;20233;-76
2023/11/29 12:53:06;;;;;;;19.02;12.88;;;0.60;1.00;;;;;;5070309;28;20319;-71
2023/11/29 12:55:33;;;;;;;13.95;11.45;;;0.60;1.00;;;;;;5068736;28;20236;-72
2023/11/29 12:58:00;;;;;;;14.55;11.60;;;0.70;1.00;;;;;;5049961;28;20265;-69